Frazer, MT (59225)

8:40 PM MDT on August 23, 2016 (GMT -0600)
APRSWXNET | | Change Station
Active Advisory: Lake Wind Advisory

Elev 2217 ft 48.11 °N, 105.89 °W | Updated 27 minutes ago

Overcast
Overcast
63 °F
Feels Like 63 °F
N
7
Wind Variable Wind from West
Gusts 15.0 mph

Today
High -- | Low -- °F
--% Chance of Precip.
Yesterday
High -- | Low -- °F
Precip. -- in
Pressure 29.93 in
Visibility 10.0 miles
Clouds Scattered Clouds 6500 ft
Overcast 8500 ft
Dew Point 48 °F
Humidity 59%
Rainfall in
Snow Depth Not available.
6:10 AM 8:01 PM
Waning Gibbous, 62% visible
METAR KOLF 240153Z AUTO 29019G28KT 10SM SCT065 OVC085 20/10 A2993 RMK AO2 PK WND 28033/0127 SLP133 T02000100
Pressure 29.93 in
Visibility 10.0 miles
Clouds Scattered Clouds 6500 ft
Overcast 8500 ft
Dew Point 48 °F
Humidity 59%
Rainfall in
Snow Depth Not available.
6:10 AM 8:01 PM
Waning Gibbous, 62% visible
METAR KOLF 240153Z AUTO 29019G28KT 10SM SCT065 OVC085 20/10 A2993 RMK AO2 PK WND 28033/0127 SLP133 T02000100

10-Day Weather Forecast

Almanac

Astronomy

Aug. 23, 2016 Rise Set
Actual Time
Civil Twilight
Nautical Twilight
Astronomical Twilight
Moon
Length of Visible Light
Length of Day
Tomorrow will be .
, % of the Moon is Illuminated

Today's Extremes

State Highs State Lows

Community

WunderPhotos

Upload Photos

1,934,528 photos uploaded!

WunderBlog® & News

Nearby

Air Quality

  Air Quality AQ Index Pollutant
Not available.

Snow Depth

Station Depth Elevation

Earthquake Activity

City Distance Mag. Time & Date
Minimum magnitude displayed is 2.5.

Coastal Water Temperatures

Place Temperature

Stations

Nearby Weather Stations

Station Location Temp. Windchill Dew Point Humidity Wind Precip. Elev Updated Type
                   

Watches & Warnings

Lake Wind Advisory
Issued: 2:02 PM MDT Aug. 23, 2016 – National Weather Service

... Lake Wind Advisory remains in effect until 9 PM MDT Wednesday
for Fort Peck Lake...

* winds... northwest 15 to 30 mph with gusts up to 40 mph.

* Timing... continuing through sunset this evening... then tapering
off some overnight. Northwest winds will increase again
Wednesday morning and diminish Wednesday evening.

* Impacts... these winds will make open waters of the lake rough
and hazardous... and may result in high waves which may tip or
swamp smaller craft.

Precautionary/preparedness actions...

Boaters should use extreme caution if venturing onto Fort Peck
Lake. For your personal safety... avoid the open waters. Stay
close to shore or around protected areas.